EZY68GL EGGP-EGNS
Flight info
| Callsign | EZY68GL |
|---|---|
| Flight time | 0h 24m |
| Altitude | 12000 |
| Route | WAL M146 LUSOD DCT IOM |
| Aircraft | A20N/M-SDE2E3FGHIJ1RWXYZ/LB1 |
Departure
| Time | 2026-04-10 08:00 |
|---|---|
| Airport | Liverpool John Lennon Airport (EGGP) |
Arrival
| Time | 2026-04-10 08:25 |
|---|---|
| Airport | Isle of Man Airport (EGNS) |
| Time | Latitude | Longitude | Altitude | Speed | Heading |
|---|---|---|---|---|---|
| 2026-04-10 07:43 | 53.33643 | -2.85912 | 96 ft | 0 kts | 357° |
| 2026-04-10 07:52 | 53.33633 | -2.85912 | 95 ft | 2 kts | 357° |
| 2026-04-10 07:52 | 53.33623 | -2.85911 | 95 ft | 2 kts | 356° |
| 2026-04-10 07:52 | 53.33612 | -2.85909 | 94 ft | 2 kts | 341° |
| 2026-04-10 07:53 | 53.33595 | -2.85892 | 95 ft | 3 kts | 309° |
| 2026-04-10 07:53 | 53.33588 | -2.85862 | 94 ft | 3 kts | 260° |
| 2026-04-10 07:53 | 53.33593 | -2.85830 | 94 ft | 3 kts | 265° |
| 2026-04-10 07:53 | 53.33593 | -2.85820 | 93 ft | 0 kts | 265° |
| 2026-04-10 07:54 | 53.33592 | -2.85861 | 94 ft | 11 kts | 265° |
| 2026-04-10 07:55 | 53.33554 | -2.85947 | 94 ft | 11 kts | 177° |
| 2026-04-10 07:55 | 53.33491 | -2.85883 | 94 ft | 12 kts | 96° |
| 2026-04-10 07:55 | 53.33493 | -2.85727 | 94 ft | 15 kts | 84° |
| 2026-04-10 07:55 | 53.33504 | -2.85545 | 94 ft | 16 kts | 84° |
| 2026-04-10 07:56 | 53.33510 | -2.85402 | 95 ft | 12 kts | 87° |
| 2026-04-10 07:56 | 53.33517 | -2.85243 | 94 ft | 15 kts | 85° |
| 2026-04-10 07:56 | 53.33526 | -2.85053 | 94 ft | 18 kts | 85° |
| 2026-04-10 07:56 | 53.33534 | -2.84834 | 94 ft | 20 kts | 87° |
| 2026-04-10 07:57 | 53.33544 | -2.84612 | 94 ft | 18 kts | 85° |
| 2026-04-10 07:57 | 53.33555 | -2.84394 | 95 ft | 20 kts | 85° |
| 2026-04-10 07:57 | 53.33565 | -2.84164 | 94 ft | 20 kts | 85° |
| 2026-04-10 07:57 | 53.33576 | -2.83933 | 94 ft | 20 kts | 85° |
| 2026-04-10 07:58 | 53.33585 | -2.83739 | 94 ft | 17 kts | 86° |
| 2026-04-10 07:58 | 53.33565 | -2.83638 | 96 ft | 9 kts | 152° |
| 2026-04-10 07:58 | 53.33540 | -2.83640 | 94 ft | 0 kts | 176° |
| 2026-04-10 07:59 | 53.33524 | -2.83638 | 94 ft | 12 kts | 175° |
| 2026-04-10 07:59 | 53.33433 | -2.83663 | 94 ft | 15 kts | 233° |
| 2026-04-10 07:59 | 53.33416 | -2.83779 | 94 ft | 0 kts | 267° |
| 2026-04-10 08:00 | 53.33395 | -2.84229 | 96 ft | 77 kts | 265° |
| 2026-04-10 08:00 | 53.33335 | -2.85489 | 95 ft | 137 kts | 265° |
| 2026-04-10 08:00 | 53.33254 | -2.87221 | 515 ft | 149 kts | 265° |
| 2026-04-10 08:00 | 53.33188 | -2.88940 | 1263 ft | 147 kts | 266° |
| 2026-04-10 08:01 | 53.33124 | -2.90644 | 1984 ft | 148 kts | 267° |
| 2026-04-10 08:01 | 53.33165 | -2.92451 | 2408 ft | 168 kts | 281° |
| 2026-04-10 08:01 | 53.33595 | -2.94405 | 2840 ft | 194 kts | 297° |
| 2026-04-10 08:01 | 53.34363 | -2.96477 | 3224 ft | 223 kts | 302° |
| 2026-04-10 08:02 | 53.35217 | -2.98793 | 3739 ft | 245 kts | 301° |
| 2026-04-10 08:02 | 53.36067 | -3.01310 | 3906 ft | 249 kts | 297° |
| 2026-04-10 08:02 | 53.36834 | -3.03926 | 3983 ft | 251 kts | 293° |
| 2026-04-10 08:02 | 53.37510 | -3.06608 | 3980 ft | 249 kts | 292° |
| 2026-04-10 08:03 | 53.38160 | -3.09303 | 3973 ft | 250 kts | 291° |
| 2026-04-10 08:03 | 53.38832 | -3.12034 | 4017 ft | 250 kts | 292° |
| 2026-04-10 08:03 | 53.39635 | -3.14571 | 4325 ft | 250 kts | 305° |
| 2026-04-10 08:03 | 53.40851 | -3.16683 | 4907 ft | 258 kts | 315° |
| 2026-04-10 08:04 | 53.42161 | -3.18706 | 6039 ft | 255 kts | 315° |
| 2026-04-10 08:04 | 53.43455 | -3.20765 | 7027 ft | 259 kts | 313° |
| 2026-04-10 08:04 | 53.44754 | -3.22905 | 7929 ft | 264 kts | 312° |
| 2026-04-10 08:05 | 53.47389 | -3.27369 | 9768 ft | 274 kts | 311° |
| 2026-04-10 08:05 | 53.48737 | -3.29675 | 10575 ft | 282 kts | 311° |
| 2026-04-10 08:05 | 53.50163 | -3.32125 | 10946 ft | 304 kts | 311° |
| 2026-04-10 08:05 | 53.51695 | -3.34759 | 11324 ft | 324 kts | 311° |
| 2026-04-10 08:06 | 53.53287 | -3.37485 | 11904 ft | 328 kts | 311° |
| 2026-04-10 08:06 | 53.54890 | -3.40227 | 12100 ft | 329 kts | 311° |
| 2026-04-10 08:06 | 53.56495 | -3.42977 | 12141 ft | 329 kts | 311° |
| 2026-04-10 08:06 | 53.58041 | -3.45808 | 12153 ft | 327 kts | 306° |
| 2026-04-10 08:07 | 53.59368 | -3.48907 | 12137 ft | 327 kts | 302° |
| 2026-04-10 08:07 | 53.60677 | -3.52033 | 12135 ft | 326 kts | 302° |
| 2026-04-10 08:07 | 53.61990 | -3.55149 | 12151 ft | 326 kts | 302° |
| 2026-04-10 08:07 | 53.63306 | -3.58270 | 12132 ft | 326 kts | 302° |
| 2026-04-10 08:08 | 53.64617 | -3.61386 | 12137 ft | 326 kts | 302° |
| 2026-04-10 08:08 | 53.65928 | -3.64510 | 12134 ft | 326 kts | 302° |
| 2026-04-10 08:08 | 53.67233 | -3.67624 | 12143 ft | 325 kts | 302° |
| 2026-04-10 08:08 | 53.68537 | -3.70744 | 12150 ft | 326 kts | 302° |
| 2026-04-10 08:09 | 53.69848 | -3.73886 | 12134 ft | 329 kts | 302° |
| 2026-04-10 08:09 | 53.70720 | -3.75975 | 12132 ft | 328 kts | 302° |
| 2026-04-10 08:09 | 53.72030 | -3.79118 | 12133 ft | 327 kts | 302° |
| 2026-04-10 08:09 | 53.73338 | -3.82260 | 12133 ft | 328 kts | 302° |
| 2026-04-10 08:10 | 53.74651 | -3.85417 | 12133 ft | 328 kts | 302° |
| 2026-04-10 08:10 | 53.75951 | -3.88548 | 12137 ft | 327 kts | 302° |
| 2026-04-10 08:10 | 53.77260 | -3.91708 | 12133 ft | 328 kts | 302° |
| 2026-04-10 08:10 | 53.78565 | -3.94865 | 12133 ft | 328 kts | 302° |
| 2026-04-10 08:11 | 53.79871 | -3.98023 | 12132 ft | 328 kts | 302° |
| 2026-04-10 08:11 | 53.81174 | -4.01178 | 12133 ft | 328 kts | 302° |
| 2026-04-10 08:11 | 53.82479 | -4.04340 | 12132 ft | 328 kts | 302° |
| 2026-04-10 08:11 | 53.83784 | -4.07504 | 12133 ft | 328 kts | 302° |
| 2026-04-10 08:12 | 53.85087 | -4.10669 | 12131 ft | 328 kts | 302° |
| 2026-04-10 08:12 | 53.86390 | -4.13838 | 12044 ft | 328 kts | 302° |
| 2026-04-10 08:12 | 53.87694 | -4.17013 | 11781 ft | 327 kts | 302° |
| 2026-04-10 08:12 | 53.88989 | -4.20170 | 11537 ft | 325 kts | 301° |
| 2026-04-10 08:13 | 53.90271 | -4.23299 | 11282 ft | 321 kts | 302° |
| 2026-04-10 08:13 | 53.91780 | -4.26014 | 11141 ft | 315 kts | 321° |
| 2026-04-10 08:13 | 53.93698 | -4.27694 | 11040 ft | 306 kts | 332° |
| 2026-04-10 08:13 | 53.95603 | -4.29137 | 10919 ft | 294 kts | 332° |
| 2026-04-10 08:14 | 53.97445 | -4.30526 | 10645 ft | 288 kts | 333° |
| 2026-04-10 08:14 | 53.99329 | -4.31686 | 10266 ft | 288 kts | 340° |
| 2026-04-10 08:14 | 54.01250 | -4.32651 | 9860 ft | 287 kts | 340° |
| 2026-04-10 08:14 | 54.03183 | -4.33492 | 9439 ft | 288 kts | 351° |
| 2026-04-10 08:15 | 54.05190 | -4.33295 | 9027 ft | 290 kts | 5° |
| 2026-04-10 08:15 | 54.07183 | -4.32834 | 8611 ft | 288 kts | 5° |
| 2026-04-10 08:15 | 54.09175 | -4.32375 | 8211 ft | 287 kts | 5° |
| 2026-04-10 08:15 | 54.11143 | -4.31922 | 7855 ft | 284 kts | 5° |
| 2026-04-10 08:16 | 54.13093 | -4.31476 | 7477 ft | 282 kts | 5° |
| 2026-04-10 08:16 | 54.15036 | -4.31036 | 7099 ft | 281 kts | 5° |
| 2026-04-10 08:16 | 54.16890 | -4.30035 | 6707 ft | 282 kts | 28° |
| 2026-04-10 08:16 | 54.18384 | -4.27985 | 6358 ft | 280 kts | 52° |
| 2026-04-10 08:17 | 54.19219 | -4.24979 | 5941 ft | 278 kts | 80° |
| 2026-04-10 08:17 | 54.19358 | -4.21739 | 5711 ft | 269 kts | 89° |
| 2026-04-10 08:17 | 54.19418 | -4.18619 | 5596 ft | 257 kts | 89° |
| 2026-04-10 08:17 | 54.19286 | -4.15664 | 5465 ft | 244 kts | 110° |
| 2026-04-10 08:18 | 54.18427 | -4.13304 | 5169 ft | 236 kts | 141° |
| 2026-04-10 08:18 | 54.17014 | -4.12062 | 4740 ft | 227 kts | 173° |
| 2026-04-10 08:18 | 54.15443 | -4.11806 | 4229 ft | 226 kts | 180° |
| 2026-04-10 08:18 | 54.13930 | -4.12228 | 3747 ft | 220 kts | 211° |
| 2026-04-10 08:19 | 54.12932 | -4.14106 | 3194 ft | 218 kts | 252° |
| 2026-04-10 08:19 | 54.12825 | -4.16656 | 2723 ft | 217 kts | 274° |
| 2026-04-10 08:19 | 54.12962 | -4.19228 | 2434 ft | 215 kts | 274° |
| 2026-04-10 08:19 | 54.13087 | -4.21751 | 2140 ft | 214 kts | 272° |
| 2026-04-10 08:20 | 54.13073 | -4.24251 | 2000 ft | 209 kts | 264° |
| 2026-04-10 08:20 | 54.12856 | -4.26771 | 1989 ft | 214 kts | 258° |
| 2026-04-10 08:20 | 54.12541 | -4.29242 | 1997 ft | 215 kts | 257° |
| 2026-04-10 08:20 | 54.12230 | -4.31678 | 1994 ft | 203 kts | 257° |
| 2026-04-10 08:21 | 54.11943 | -4.33944 | 1997 ft | 193 kts | 257° |
| 2026-04-10 08:21 | 54.11664 | -4.36139 | 1990 ft | 180 kts | 257° |
| 2026-04-10 08:21 | 54.11412 | -4.38124 | 2002 ft | 172 kts | 257° |
| 2026-04-10 08:21 | 54.11157 | -4.40127 | 2001 ft | 174 kts | 257° |
| 2026-04-10 08:22 | 54.10906 | -4.42108 | 1998 ft | 172 kts | 257° |
| 2026-04-10 08:22 | 54.10654 | -4.44096 | 1993 ft | 168 kts | 257° |
| 2026-04-10 08:22 | 54.10411 | -4.46004 | 1969 ft | 165 kts | 257° |
| 2026-04-10 08:22 | 54.10170 | -4.47907 | 1744 ft | 163 kts | 257° |
| 2026-04-10 08:23 | 54.09937 | -4.49741 | 1518 ft | 150 kts | 256° |
| 2026-04-10 08:23 | 54.09729 | -4.51379 | 1323 ft | 137 kts | 256° |
| 2026-04-10 08:23 | 54.09527 | -4.52971 | 1114 ft | 136 kts | 256° |
| 2026-04-10 08:23 | 54.09329 | -4.54559 | 931 ft | 138 kts | 257° |
| 2026-04-10 08:24 | 54.09128 | -4.56162 | 673 ft | 139 kts | 257° |
| 2026-04-10 08:24 | 54.08909 | -4.57744 | 529 ft | 137 kts | 257° |
| 2026-04-10 08:24 | 54.08717 | -4.59338 | 365 ft | 139 kts | 260° |
| 2026-04-10 08:24 | 54.08521 | -4.60922 | 116 ft | 133 kts | 258° |
| 2026-04-10 08:25 | 54.08326 | -4.62414 | 35 ft | 116 kts | 259° |
| 2026-04-10 08:25 | 54.08251 | -4.63017 | 40 ft | 23 kts | 257° |
| 2026-04-10 08:25 | 54.08223 | -4.63231 | 40 ft | 10 kts | 258° |
| 2026-04-10 08:25 | 54.08263 | -4.63327 | 41 ft | 12 kts | 340° |
| 2026-04-10 08:26 | 54.08329 | -4.63354 | 40 ft | 8 kts | 347° |
| 2026-04-10 08:26 | 54.08348 | -4.63361 | 40 ft | 4 kts | 347° |
| 2026-04-10 08:26 | 54.08366 | -4.63367 | 40 ft | 2 kts | 347° |
| 2026-04-10 08:26 | 54.08395 | -4.63378 | 40 ft | 7 kts | 347° |
| 2026-04-10 08:27 | 54.08447 | -4.63382 | 38 ft | 10 kts | 17° |
| 2026-04-10 08:27 | 54.08507 | -4.63332 | 39 ft | 8 kts | 23° |
| 2026-04-10 08:27 | 54.08547 | -4.63373 | 40 ft | 1 kts | 318° |
| 2026-04-10 08:27 | 54.08559 | -4.63391 | 40 ft | 1 kts | 318° |
| 2026-04-10 08:28 | 54.08575 | -4.63407 | 40 ft | 4 kts | 342° |
| 2026-04-10 08:28 | 54.08596 | -4.63391 | 38 ft | 0 kts | 51° |
| 2026-04-10 08:28 | 54.08601 | -4.63386 | 39 ft | 2 kts | 37° |
| 2026-04-10 08:28 | 54.08604 | -4.63380 | 39 ft | 0 kts | 44° |